GOGG

Ziguinchor Airport

Ziguinchor, Senegal
METAR GOGG 232200Z VRB02KT CAVOK 24/19 Q1012
Observed Flight Rules
Apr-23 @ 22:00 UTC (47 minutes ago) Visual Flight Rules
Wind Visibility Clouds
Variable at 2 knots 10,000+ meters
  • Clear skies
Temperatures Readings
Current 24°C / 75°F
Dewpoint 19°C / 66°F
Humidity 74%
Altimeter 29.88" Hg
Pressure 1012 hPa
Elevation 23
METAR GOGG 232200Z VRB02KT CAVOK 24/19 Q1012
Observed Flight Rules
Apr-23 @ 22:00 UTC
(47 minutes ago)
VFR
Wind Visibility
Variable at 2 knots 10,000+ meters
Clouds
  • Clear skies
Temperature Dewpoint
24°C / 75°F 19°C / 66°F
Humidity Altimeter Pressure
74% 29.88" Hg 1012 hPa